Time;durP1;ratioP1;P1;durP2;ratioP2;P2;SDS_P1;SDS_P2;PMS_P1;PMS_P2;Temp;Humidity;BMP_temperature;BMP_pressure;BME280_temperature;BME280_humidity;BME280_pressure;Samples;Min_cycle;Max_cycle;Signal;HPM_P1;HPM_P2
2023/01/05 00:00:00;;;;;;;23.30;7.47;;;11.10;99.90;;;;;;5015062;28;20235;-67
2023/01/05 00:02:27;;;;;;;26.98;7.07;;;11.10;99.90;;;;;;4995353;28;20204;-66
2023/01/05 00:04:52;;;;;;;25.08;7.55;;;11.10;99.90;;;;;;4994780;28;20168;-66
2023/01/05 00:07:18;;;;;;;20.17;7.13;;;11.10;99.90;;;;;;4994967;28;20621;-66
2023/01/05 00:09:44;;;;;;;18.52;6.97;;;11.10;99.90;;;;;;4994501;28;20226;-66
2023/01/05 00:23:08;;;;;;;18.23;6.90;;;11.10;99.90;;;;;;4994555;28;20167;-67
2023/01/05 00:25:38;;;;;;;23.85;6.32;;;11.10;99.90;;;;;;4994662;28;20176;-68
2023/01/05 00:28:04;;;;;;;20.55;7.28;;;11.10;99.90;;;;;;5014089;28;20160;-68
2023/01/05 00:30:45;;;;;;;32.35;7.95;;;11.10;99.90;;;;;;5017220;28;20203;-68
2023/01/05 00:33:12;;;;;;;22.10;7.05;;;11.10;99.90;;;;;;5033660;28;20170;-67
2023/01/05 00:35:39;;;;;;;21.65;7.45;;;11.10;99.90;;;;;;5033449;28;20175;-68
2023/01/05 00:38:06;;;;;;;27.15;7.03;;;11.10;99.90;;;;;;5033456;28;20179;-68
2023/01/05 00:40:32;;;;;;;21.17;7.80;;;11.00;99.90;;;;;;5033505;28;20195;-67
2023/01/05 00:42:58;;;;;;;22.20;7.45;;;11.10;99.90;;;;;;5033508;28;20283;-67
2023/01/05 00:45:24;;;;;;;19.55;7.03;;;11.10;99.90;;;;;;5015453;28;20207;-67
2023/01/05 00:47:52;;;;;;;18.55;6.65;;;11.20;99.90;;;;;;5033304;28;20276;-69
2023/01/05 00:50:19;;;;;;;22.08;7.38;;;11.10;99.90;;;;;;5033411;28;20189;-67
2023/01/05 00:52:46;;;;;;;21.85;7.13;;;11.10;99.90;;;;;;5033498;28;20544;-67
2023/01/05 00:55:12;;;;;;;21.05;6.55;;;11.10;99.90;;;;;;5018073;28;20175;-67
2023/01/05 00:57:38;;;;;;;19.02;6.18;;;11.20;99.90;;;;;;5037274;28;20175;-68
2023/01/05 01:00:05;;;;;;;21.90;7.68;;;11.20;99.90;;;;;;5037033;28;20195;-68
2023/01/05 01:02:31;;;;;;;27.40;7.60;;;11.10;99.90;;;;;;5037097;28;20282;-68
2023/01/05 01:04:57;;;;;;;17.48;7.15;;;11.10;99.90;;;;;;5037248;28;20198;-67
2023/01/05 01:07:22;;;;;;;27.10;7.53;;;11.10;99.90;;;;;;5019196;28;20550;-67
2023/01/05 01:09:48;;;;;;;25.17;6.30;;;11.10;99.90;;;;;;5036987;28;20230;-68
2023/01/05 01:12:14;;;;;;;19.77;6.65;;;11.00;99.90;;;;;;5036925;28;20311;-68
2023/01/05 01:14:40;;;;;;;29.50;7.65;;;11.00;99.90;;;;;;5018942;28;20712;-68
2023/01/05 01:17:06;;;;;;;23.00;6.90;;;10.80;99.90;;;;;;5036683;28;20254;-67
2023/01/05 01:19:32;;;;;;;21.65;7.63;;;10.80;99.90;;;;;;5036882;28;20210;-68
2023/01/05 01:21:58;;;;;;;22.45;6.47;;;10.70;99.90;;;;;;5018915;28;20297;-67
2023/01/05 01:24:29;;;;;;;16.33;6.35;;;10.70;99.90;;;;;;5018861;28;20310;-67
2023/01/05 01:26:55;;;;;;;23.88;7.05;;;10.70;99.90;;;;;;5036823;28;20182;-67
2023/01/05 01:29:21;;;;;;;21.70;7.87;;;10.70;99.90;;;;;;5036145;28;20194;-68
2023/01/05 01:31:49;;;;;;;21.98;6.65;;;10.70;99.90;;;;;;5036603;28;20619;-67
2023/01/05 01:34:15;;;;;;;24.52;7.35;;;10.70;99.90;;;;;;5036975;28;20188;-68
2023/01/05 01:36:41;;;;;;;24.37;6.80;;;10.70;99.90;;;;;;5036828;28;20225;-68
2023/01/05 01:39:08;;;;;;;26.98;7.03;;;10.70;99.90;;;;;;5018847;28;20557;-67
2023/01/05 01:41:33;;;;;;;24.48;7.20;;;10.70;99.90;;;;;;5036337;28;20203;-68
2023/01/05 01:43:59;;;;;;;20.30;6.75;;;10.70;99.90;;;;;;5036306;28;20178;-68
2023/01/05 01:46:26;;;;;;;23.85;7.03;;;10.70;99.90;;;;;;5036468;28;20183;-67
2023/01/05 01:49:01;;;;;;;17.00;6.67;;;10.70;99.90;;;;;;5036562;28;20179;-67
2023/01/05 01:51:37;;;;;;;20.00;7.22;;;10.70;99.90;;;;;;5036649;28;20647;-67
2023/01/05 01:54:08;;;;;;;14.80;6.22;;;10.70;99.90;;;;;;5036627;28;20242;-67
2023/01/05 01:56:47;;;;;;;22.50;7.10;;;10.70;99.90;;;;;;5036703;28;20166;-67
2023/01/05 01:59:14;;;;;;;24.27;6.97;;;10.80;99.90;;;;;;5036390;28;20202;-68
2023/01/05 02:01:40;;;;;;;28.58;7.10;;;10.80;99.90;;;;;;5035923;28;20710;-67
2023/01/05 02:04:08;;;;;;;23.83;6.03;;;10.80;99.90;;;;;;5018192;28;20244;-68
2023/01/05 02:06:34;;;;;;;22.83;6.20;;;10.80;99.90;;;;;;5017749;28;20185;-68
2023/01/05 02:09:00;;;;;;;23.63;8.03;;;10.80;99.90;;;;;;5018339;28;20179;-67
2023/01/05 02:12:02;;;;;;;21.38;7.38;;;10.80;99.90;;;;;;5036518;28;20195;-67
2023/01/05 02:14:47;;;;;;;21.60;7.22;;;10.80;99.90;;;;;;5035846;28;20179;-68
2023/01/05 02:17:36;;;;;;;24.97;7.13;;;10.70;99.90;;;;;;5036052;28;20175;-67
2023/01/05 02:20:21;;;;;;;29.45;7.32;;;10.70;99.90;;;;;;5035501;28;20191;-68
2023/01/05 02:23:05;;;;;;;20.35;7.22;;;10.70;99.90;;;;;;5035880;28;20194;-67
2023/01/05 02:25:33;;;;;;;28.70;7.85;;;10.70;99.90;;;;;;5035936;28;20509;-68
2023/01/05 02:28:23;;;;;;;23.27;8.23;;;10.70;99.90;;;;;;5036620;28;20644;-67
2023/01/05 02:31:03;;;;;;;26.08;8.60;;;10.70;99.90;;;;;;5035947;28;20246;-67
2023/01/05 02:33:57;;;;;;;26.30;8.80;;;10.70;99.90;;;;;;5017745;28;20175;-68
2023/01/05 02:36:35;;;;;;;25.50;8.18;;;10.70;99.90;;;;;;5008935;28;20191;-67
2023/01/05 02:39:54;;;;;;;25.88;7.40;;;10.70;99.90;;;;;;5035431;28;20210;-67
2023/01/05 02:42:23;;;;;;;25.00;8.17;;;10.60;99.90;;;;;;4935869;29;20202;-67
2023/01/05 02:44:48;;;;;;;25.45;7.60;;;10.60;99.90;;;;;;5011510;28;20190;-67
2023/01/05 02:47:26;;;;;;;22.65;7.47;;;10.60;99.90;;;;;;5035032;28;20187;-67
2023/01/05 02:50:03;;;;;;;30.05;7.85;;;10.60;99.90;;;;;;5034864;28;20199;-67
2023/01/05 02:52:37;;;;;;;28.50;7.82;;;10.60;99.90;;;;;;5035060;28;20179;-67
2023/01/05 02:55:08;;;;;;;23.90;8.10;;;10.60;99.90;;;;;;5035043;28;20169;-67
2023/01/05 02:57:45;;;;;;;30.92;8.90;;;10.60;99.90;;;;;;5035245;28;20251;-67
2023/01/05 03:00:23;;;;;;;27.23;7.93;;;10.60;99.90;;;;;;5033394;28;20620;-68
2023/01/05 03:02:51;;;;;;;27.60;7.17;;;10.60;99.90;;;;;;5035171;28;20292;-68
2023/01/05 03:05:39;;;;;;;30.38;9.30;;;10.60;99.90;;;;;;5035502;28;20179;-67
2023/01/05 03:08:06;;;;;;;19.48;6.38;;;10.60;99.90;;;;;;5017125;28;20182;-67
2023/01/05 03:13:40;;;;;;;26.20;8.20;;;10.50;99.90;;;;;;5035289;28;20298;-69
2023/01/05 03:16:14;;;;;;;21.98;7.78;;;10.50;99.90;;;;;;5035383;28;20151;-66
2023/01/05 03:21:27;;;;;;;27.33;8.40;;;10.40;99.90;;;;;;5035157;28;20588;-68
2023/01/05 03:38:17;;;;;;;20.70;7.97;;;10.40;99.90;;;;;;5035252;28;20171;-67
2023/01/05 03:40:44;;;;;;;22.00;7.90;;;10.40;99.90;;;;;;5035069;28;20202;-67
2023/01/05 03:43:11;;;;;;;23.98;7.18;;;10.40;99.90;;;;;;5016851;28;20234;-67
2023/01/05 03:45:43;;;;;;;20.70;7.33;;;10.30;99.90;;;;;;5016777;28;20222;-67
2023/01/05 03:48:08;;;;;;;18.63;7.60;;;10.30;99.90;;;;;;5034872;28;20159;-67
2023/01/05 03:50:36;;;;;;;23.93;7.80;;;10.30;99.90;;;;;;5034376;28;20229;-68
2023/01/05 03:53:02;;;;;;;21.87;7.40;;;10.30;99.90;;;;;;5034550;28;20186;-67
2023/01/05 03:55:28;;;;;;;23.63;7.40;;;10.30;99.90;;;;;;5034522;28;20191;-67
2023/01/05 03:57:54;;;;;;;28.80;8.70;;;10.20;99.90;;;;;;5034792;28;20183;-67
2023/01/05 04:00:20;;;;;;;20.93;8.07;;;10.10;99.90;;;;;;5034062;28;20205;-67
2023/01/05 04:02:46;;;;;;;27.90;8.23;;;10.10;99.90;;;;;;5034219;28;20209;-67
2023/01/05 04:05:12;;;;;;;25.43;8.43;;;10.10;99.90;;;;;;5034306;28;20254;-66
2023/01/05 04:07:37;;;;;;;24.33;8.47;;;10.10;99.90;;;;;;5016069;28;20265;-66
2023/01/05 04:10:04;;;;;;;20.97;7.13;;;10.10;99.90;;;;;;5033861;28;20195;-67
2023/01/05 04:12:29;;;;;;;25.00;9.10;;;10.10;99.90;;;;;;5035033;28;20186;-66
2023/01/05 04:14:55;;;;;;;25.57;8.00;;;10.10;99.90;;;;;;5016133;28;20179;-67
2023/01/05 04:17:21;;;;;;;25.38;8.35;;;10.20;99.90;;;;;;5016298;28;20658;-67
2023/01/05 04:19:47;;;;;;;25.97;7.53;;;10.20;99.90;;;;;;5033634;28;20215;-67
2023/01/05 04:22:13;;;;;;;25.30;7.73;;;10.20;99.90;;;;;;5033681;28;20209;-67
2023/01/05 04:24:38;;;;;;;22.27;8.30;;;10.20;99.90;;;;;;5015867;28;20183;-67
2023/01/05 04:27:04;;;;;;;26.47;8.20;;;10.10;99.90;;;;;;5044756;28;20260;-67
2023/01/05 04:29:30;;;;;;;25.00;8.60;;;10.00;99.90;;;;;;5054920;28;20194;-68
2023/01/05 04:31:56;;;;;;;23.43;8.60;;;10.00;99.90;;;;;;5067566;28;20201;-67
2023/01/05 04:34:21;;;;;;;26.20;8.10;;;10.00;99.90;;;;;;5076798;28;20554;-68
2023/01/05 04:36:48;;;;;;;32.03;9.23;;;10.00;99.90;;;;;;5057075;28;20209;-67
2023/01/05 04:39:14;;;;;;;22.33;8.07;;;10.00;99.90;;;;;;5074764;28;20193;-67
2023/01/05 04:41:40;;;;;;;24.17;8.50;;;9.90;99.90;;;;;;5052211;28;20252;-66
2023/01/05 04:44:06;;;;;;;28.53;8.80;;;10.00;99.90;;;;;;5023025;28;20620;-67
2023/01/05 04:46:32;;;;;;;31.20;8.47;;;9.90;99.90;;;;;;4968148;28;20240;-68
2023/01/05 04:50:54;;;;;;;28.93;8.53;;;9.90;99.90;;;;;;5138790;27;20529;-66
2023/01/05 04:53:21;;;;;;;32.08;9.45;;;9.90;99.90;;;;;;5147474;27;20274;-67
2023/01/05 04:55:47;;;;;;;24.93;9.53;;;10.00;99.90;;;;;;5131979;27;20274;-67
2023/01/05 04:58:12;;;;;;;26.60;8.93;;;10.00;99.90;;;;;;5150433;27;20217;-67
2023/01/05 05:00:38;;;;;;;21.93;8.30;;;9.90;99.90;;;;;;5080627;27;1513871;-67
2023/01/05 05:03:04;;;;;;;27.33;8.13;;;9.90;99.90;;;;;;4959396;28;20290;-67
2023/01/05 05:05:30;;;;;;;29.27;8.43;;;10.00;99.90;;;;;;4878363;29;20279;-66
2023/01/05 05:07:56;;;;;;;17.95;7.47;;;10.00;99.90;;;;;;4877609;29;20637;-67
2023/01/05 05:10:21;;;;;;;25.25;8.30;;;10.00;99.90;;;;;;4877277;29;20216;-66
2023/01/05 05:12:47;;;;;;;24.48;7.32;;;10.00;99.90;;;;;;4877590;29;20252;-67
2023/01/05 05:15:13;;;;;;;24.87;8.90;;;10.00;99.90;;;;;;4877402;29;20192;-66
2023/01/05 05:17:38;;;;;;;26.53;8.90;;;10.00;99.90;;;;;;4875939;29;20646;-66
2023/01/05 05:20:05;;;;;;;26.38;8.95;;;10.10;99.90;;;;;;4877400;29;20216;-67
2023/01/05 05:22:31;;;;;;;20.60;8.13;;;10.10;99.90;;;;;;4877646;29;20169;-66
2023/01/05 05:24:56;;;;;;;24.70;9.27;;;10.10;99.90;;;;;;4877219;29;20239;-66
2023/01/05 05:27:22;;;;;;;33.88;9.85;;;10.10;99.90;;;;;;4877288;29;20203;-67
2023/01/05 05:29:48;;;;;;;26.27;8.50;;;10.10;99.90;;;;;;4876895;29;20210;-66
2023/01/05 05:32:13;;;;;;;26.10;9.50;;;10.00;99.90;;;;;;4875842;29;20222;-66
2023/01/05 05:34:39;;;;;;;25.30;9.47;;;10.00;99.90;;;;;;4877229;29;20177;-66
2023/01/05 05:37:05;;;;;;;27.30;9.33;;;10.00;99.90;;;;;;4877698;29;20161;-66
2023/01/05 05:39:31;;;;;;;24.30;9.83;;;10.00;99.90;;;;;;4876938;29;20187;-66
2023/01/05 05:41:57;;;;;;;31.97;8.57;;;10.00;99.90;;;;;;4891380;29;20185;-66
2023/01/05 05:44:23;;;;;;;23.23;8.50;;;10.00;99.90;;;;;;4876711;29;20184;-66
2023/01/05 05:46:48;;;;;;;24.00;8.48;;;10.00;99.90;;;;;;4875695;29;20213;-66
2023/01/05 05:49:14;;;;;;;25.13;8.88;;;10.00;99.90;;;;;;4876727;29;20288;-66
2023/01/05 05:51:40;;;;;;;25.43;8.73;;;10.00;99.90;;;;;;4891329;29;20205;-66
2023/01/05 05:54:06;;;;;;;27.77;9.40;;;10.10;99.90;;;;;;4877209;29;20189;-67
2023/01/05 05:56:31;;;;;;;20.27;8.27;;;10.00;99.90;;;;;;4876477;29;20177;-66
2023/01/05 05:58:57;;;;;;;26.67;9.13;;;9.90;99.90;;;;;;4876738;29;20540;-66
2023/01/05 06:01:23;;;;;;;23.40;9.07;;;9.80;99.90;;;;;;4868094;29;20591;-66
2023/01/05 06:03:48;;;;;;;28.23;9.93;;;9.70;99.90;;;;;;4949869;28;20201;-66
2023/01/05 06:06:14;;;;;;;29.10;9.03;;;9.60;99.90;;;;;;4958621;29;20672;-66
2023/01/05 06:08:40;;;;;;;22.53;9.07;;;9.50;99.90;;;;;;4958435;29;20205;-66
2023/01/05 06:11:06;;;;;;;26.27;10.10;;;9.40;99.90;;;;;;4958662;29;20209;-66
2023/01/05 06:13:32;;;;;;;30.03;10.80;;;9.30;99.90;;;;;;4959560;29;20169;-66
2023/01/05 06:15:58;;;;;;;30.33;11.10;;;9.30;99.90;;;;;;4958522;29;20188;-66
2023/01/05 06:18:24;;;;;;;31.80;12.00;;;9.20;99.90;;;;;;4960310;29;20170;-66
2023/01/05 06:20:50;;;;;;;42.63;10.93;;;9.30;99.90;;;;;;4959466;29;20202;-66
2023/01/05 06:23:16;;;;;;;29.43;11.50;;;9.30;99.90;;;;;;4958861;29;20178;-68
2023/01/05 06:25:42;;;;;;;30.97;11.53;;;9.30;99.90;;;;;;4959041;29;20182;-66
2023/01/05 06:28:08;;;;;;;33.40;12.37;;;9.30;99.90;;;;;;4958500;29;20193;-66
2023/01/05 06:30:33;;;;;;;40.73;14.70;;;9.20;99.90;;;;;;4957618;28;20218;-66
2023/01/05 06:32:59;;;;;;;38.17;13.93;;;9.20;99.90;;;;;;4957584;29;20174;-65
2023/01/05 06:35:25;;;;;;;26.63;11.97;;;9.20;99.90;;;;;;4957429;29;20176;-66
2023/01/05 06:37:51;;;;;;;36.77;11.57;;;9.20;99.90;;;;;;4940488;29;20182;-66
2023/01/05 06:40:16;;;;;;;30.17;12.37;;;9.20;99.90;;;;;;4957512;29;20802;-66
2023/01/05 06:42:42;;;;;;;38.23;12.77;;;9.10;99.90;;;;;;4958115;29;20621;-66
2023/01/05 06:45:12;;;;;;;33.13;12.57;;;9.10;99.90;;;;;;4940075;29;20188;-66
2023/01/05 06:47:38;;;;;;;30.47;12.90;;;9.10;99.90;;;;;;4957424;29;20268;-67
2023/01/05 06:50:04;;;;;;;33.57;12.63;;;9.10;99.90;;;;;;4957370;29;20239;-66
2023/01/05 06:52:35;;;;;;;34.63;14.27;;;9.00;99.90;;;;;;4957825;29;20508;-66
2023/01/05 06:55:05;;;;;;;37.80;14.07;;;9.00;99.90;;;;;;4940257;29;20729;-66
2023/01/05 06:57:31;;;;;;;38.93;13.37;;;9.10;99.90;;;;;;4957157;29;20166;-66
2023/01/05 06:59:56;;;;;;;34.17;14.53;;;9.00;99.90;;;;;;4957039;29;20224;-66
2023/01/05 07:02:22;;;;;;;38.83;14.60;;;9.00;99.90;;;;;;4964941;28;20252;-67
2023/01/05 07:04:48;;;;;;;38.60;15.10;;;9.00;99.90;;;;;;4977403;28;20192;-66
2023/01/05 07:07:14;;;;;;;42.00;15.07;;;9.00;99.90;;;;;;4976238;28;20201;-66
2023/01/05 07:09:40;;;;;;;39.03;15.90;;;9.00;99.90;;;;;;4976329;28;20645;-66
2023/01/05 07:12:07;;;;;;;32.77;15.33;;;9.00;99.90;;;;;;4974203;28;20188;-66
2023/01/05 07:14:32;;;;;;;37.47;16.20;;;9.00;99.90;;;;;;4975765;28;20169;-66
2023/01/05 07:16:59;;;;;;;33.30;15.77;;;9.00;99.90;;;;;;4976643;28;20644;-66
2023/01/05 07:19:25;;;;;;;37.60;16.13;;;9.00;99.90;;;;;;4975852;28;20181;-67
2023/01/05 07:21:50;;;;;;;35.83;15.60;;;9.00;99.90;;;;;;4975994;28;20240;-66
2023/01/05 07:24:16;;;;;;;34.07;16.40;;;9.00;99.90;;;;;;4976206;28;20231;-66
2023/01/05 07:26:42;;;;;;;58.23;18.50;;;9.00;99.90;;;;;;4975927;28;20173;-66
2023/01/05 07:29:07;;;;;;;40.47;16.53;;;9.10;99.90;;;;;;4975667;28;20205;-67
2023/01/05 07:31:33;;;;;;;46.17;17.40;;;9.10;99.90;;;;;;4987777;28;20248;-66
2023/01/05 07:33:59;;;;;;;32.83;16.43;;;9.10;99.90;;;;;;4995201;28;20176;-66
2023/01/05 07:36:24;;;;;;;41.13;17.17;;;9.10;99.90;;;;;;4995193;28;20251;-66
2023/01/05 07:38:51;;;;;;;35.03;16.17;;;9.10;99.90;;;;;;4993836;28;20320;-65
2023/01/05 07:41:17;;;;;;;40.23;17.70;;;9.10;99.90;;;;;;4993582;28;20193;-66
2023/01/05 07:43:43;;;;;;;35.33;15.70;;;9.10;99.90;;;;;;4995247;28;20184;-66
2023/01/05 07:46:09;;;;;;;31.27;15.97;;;9.10;99.90;;;;;;4993617;28;20260;-66
2023/01/05 07:48:34;;;;;;;32.50;15.90;;;9.10;99.90;;;;;;4995176;28;20168;-66
2023/01/05 07:51:03;;;;;;;33.37;14.73;;;9.00;99.90;;;;;;4995029;28;20200;-64
2023/01/05 07:53:30;;;;;;;39.17;15.03;;;9.00;99.90;;;;;;4995055;28;20641;-66
2023/01/05 07:55:58;;;;;;;34.47;13.73;;;9.00;99.90;;;;;;4993405;28;20187;-66
2023/01/05 07:58:25;;;;;;;36.90;16.63;;;9.00;99.90;;;;;;4993420;28;20177;-66
2023/01/05 08:00:51;;;;;;;37.23;14.90;;;9.00;99.90;;;;;;4989935;28;20260;-66
2023/01/05 08:03:17;;;;;;;30.03;16.20;;;9.00;99.90;;;;;;4996425;28;20655;-66
2023/01/05 08:05:43;;;;;;;36.40;15.83;;;9.10;99.90;;;;;;5012960;28;20188;-69
2023/01/05 08:08:09;;;;;;;32.53;15.63;;;9.10;99.90;;;;;;5013343;28;20549;-69
2023/01/05 08:10:38;;;;;;;31.50;16.47;;;9.10;99.90;;;;;;5014065;28;20203;-69
2023/01/05 08:15:51;;;;;;;42.17;17.07;;;9.00;99.90;;;;;;5014319;28;20171;-68
2023/01/05 08:18:16;;;;;;;42.77;17.00;;;9.10;99.90;;;;;;5014313;28;20172;-68
2023/01/05 08:20:42;;;;;;;42.70;17.30;;;9.10;99.90;;;;;;5014077;28;20779;-68
2023/01/05 08:23:08;;;;;;;51.63;19.13;;;9.10;99.90;;;;;;5014454;28;20660;-69
2023/01/05 08:25:34;;;;;;;49.90;19.63;;;9.10;99.90;;;;;;5013836;28;20180;-69
2023/01/05 08:28:00;;;;;;;45.50;20.97;;;9.10;99.90;;;;;;5014170;28;20164;-68
2023/01/05 08:30:25;;;;;;;39.17;19.00;;;9.10;99.90;;;;;;5016529;28;20706;-69
2023/01/05 08:32:51;;;;;;;38.77;18.83;;;9.10;99.90;;;;;;5032473;28;20198;-69
2023/01/05 08:35:17;;;;;;;48.67;20.10;;;9.10;99.90;;;;;;5033965;28;20159;-69
2023/01/05 08:37:46;;;;;;;47.80;19.37;;;9.10;99.90;;;;;;5032359;28;20168;-68
2023/01/05 08:40:11;;;;;;;54.23;20.40;;;9.10;99.90;;;;;;5032171;28;20222;-68
2023/01/05 08:42:38;;;;;;;49.27;18.77;;;9.20;99.90;;;;;;5033617;28;20161;-68
2023/01/05 08:45:04;;;;;;;45.77;18.87;;;9.20;99.90;;;;;;5033592;28;20155;-68
2023/01/05 08:47:29;;;;;;;47.80;20.10;;;9.20;99.90;;;;;;5033374;28;20254;-69
2023/01/05 08:49:55;;;;;;;33.87;16.53;;;9.20;99.90;;;;;;5032271;28;20306;-69
2023/01/05 08:52:22;;;;;;;39.30;17.87;;;9.20;99.90;;;;;;5032347;28;20624;-69
2023/01/05 08:54:48;;;;;;;52.97;17.50;;;9.20;99.90;;;;;;5033991;28;20254;-69
2023/01/05 08:57:13;;;;;;;39.03;17.47;;;9.20;99.90;;;;;;5033376;28;20238;-69
2023/01/05 08:59:39;;;;;;;43.90;19.13;;;9.20;99.90;;;;;;5033265;28;20624;-69
2023/01/05 09:02:09;;;;;;;45.17;17.60;;;9.20;99.90;;;;;;5033385;28;20183;-70
2023/01/05 09:04:35;;;;;;;37.07;16.67;;;9.20;99.90;;;;;;5017521;28;20188;-72
2023/01/05 09:07:00;;;;;;;42.83;18.10;;;9.20;99.90;;;;;;5014723;28;20168;-73
2023/01/05 09:09:26;;;;;;;45.13;19.37;;;9.20;99.90;;;;;;5013561;28;20679;-68
2023/01/05 09:11:52;;;;;;;41.33;17.77;;;9.30;99.90;;;;;;5013459;28;20156;-73
2023/01/05 09:14:18;;;;;;;52.07;18.90;;;9.30;99.90;;;;;;4996532;28;20180;-73
2023/01/05 09:16:43;;;;;;;46.20;17.33;;;9.30;99.90;;;;;;5013930;28;20303;-67
2023/01/05 09:19:09;;;;;;;46.53;18.90;;;9.30;99.90;;;;;;5014068;28;20521;-73
2023/01/05 09:21:38;;;;;;;38.70;19.33;;;9.30;99.90;;;;;;5014275;28;20250;-72
2023/01/05 09:24:06;;;;;;;44.83;17.27;;;9.40;99.90;;;;;;5014742;28;20178;-71
2023/01/05 09:26:32;;;;;;;47.10;17.80;;;9.40;99.90;;;;;;4997148;28;20180;-72
2023/01/05 09:28:58;;;;;;;43.60;16.90;;;9.40;99.90;;;;;;5014714;28;20188;-72
2023/01/05 09:31:24;;;;;;;40.33;16.40;;;9.40;99.90;;;;;;5024836;28;20570;-72
2023/01/05 09:33:49;;;;;;;48.37;17.47;;;9.40;99.90;;;;;;5033849;28;20179;-72
2023/01/05 09:36:17;;;;;;;41.73;16.43;;;9.40;99.90;;;;;;5035177;28;20206;-71
2023/01/05 09:38:55;;;;;;;40.83;16.27;;;9.40;99.90;;;;;;5020093;28;20679;-71
2023/01/05 09:41:38;;;;;;;46.00;18.73;;;9.50;99.90;;;;;;5020535;28;20289;-71
2023/01/05 09:44:11;;;;;;;46.93;16.97;;;9.50;99.90;;;;;;5037331;28;20167;-68
2023/01/05 09:46:41;;;;;;;39.00;16.17;;;9.50;99.90;;;;;;5036682;28;20247;-70
2023/01/05 09:49:13;;;;;;;47.83;16.33;;;9.60;99.90;;;;;;5037705;28;20587;-72
2023/01/05 09:51:39;;;;;;;40.00;17.80;;;9.60;99.90;;;;;;5037058;28;20191;-73
2023/01/05 09:54:05;;;;;;;49.57;17.67;;;9.60;99.90;;;;;;5037659;28;20198;-70
2023/01/05 09:56:42;;;;;;;41.77;17.60;;;9.60;99.90;;;;;;5036880;28;20636;-69
2023/01/05 09:59:14;;;;;;;44.83;17.47;;;9.70;99.90;;;;;;5036335;28;20162;-69
2023/01/05 10:01:40;;;;;;;48.23;17.90;;;9.60;99.90;;;;;;5018454;28;20218;-69
2023/01/05 10:04:20;;;;;;;45.43;17.33;;;9.60;99.90;;;;;;5036114;28;20206;-69
2023/01/05 10:06:54;;;;;;;37.23;16.83;;;9.70;99.90;;;;;;5036687;28;20616;-69
2023/01/05 10:09:22;;;;;;;37.57;16.70;;;9.70;99.90;;;;;;5036291;28;20195;-69
2023/01/05 10:14:49;;;;;;;41.93;16.03;;;9.70;99.90;;;;;;5036332;28;20162;-69
2023/01/05 10:17:18;;;;;;;39.93;17.17;;;9.80;99.90;;;;;;5035995;28;20171;-70
2023/01/05 10:19:46;;;;;;;36.47;16.53;;;9.80;99.90;;;;;;5018169;28;20232;-69
2023/01/05 10:22:31;;;;;;;36.63;17.77;;;9.80;99.90;;;;;;5036071;28;20190;-69
2023/01/05 10:25:03;;;;;;;43.57;17.20;;;9.80;99.90;;;;;;5018140;28;20636;-69
2023/01/05 10:27:32;;;;;;;43.40;18.13;;;9.80;99.90;;;;;;5035737;28;20175;-69
2023/01/05 10:30:22;;;;;;;39.70;17.10;;;9.90;99.90;;;;;;5017876;28;20222;-69
2023/01/05 10:32:54;;;;;;;42.73;17.23;;;9.80;99.90;;;;;;5036117;28;20191;-69
2023/01/05 10:35:55;;;;;;;39.43;15.33;;;9.90;99.90;;;;;;5036137;28;20523;-69
2023/01/05 10:38:38;;;;;;;33.87;16.20;;;9.90;99.90;;;;;;4982589;28;20572;-69
2023/01/05 10:41:16;;;;;;;44.13;15.63;;;9.90;99.90;;;;;;5035766;28;20201;-69
2023/01/05 10:43:50;;;;;;;45.40;16.93;;;9.90;99.90;;;;;;5035943;28;20184;-69
2023/01/05 10:46:17;;;;;;;36.67;14.93;;;9.90;99.90;;;;;;5017653;28;20186;-69
2023/01/05 10:48:43;;;;;;;39.70;15.90;;;10.00;99.90;;;;;;5017505;28;21058;-69
2023/01/05 10:51:09;;;;;;;51.97;16.67;;;10.00;99.90;;;;;;5035901;28;20203;-69
2023/01/05 10:53:38;;;;;;;34.27;15.53;;;10.00;99.90;;;;;;5035541;28;20178;-69
2023/01/05 10:56:09;;;;;;;41.17;17.13;;;10.00;99.90;;;;;;5035611;28;20163;-69
2023/01/05 10:58:37;;;;;;;39.87;16.43;;;9.90;99.90;;;;;;5017522;28;20183;-69
2023/01/05 11:01:23;;;;;;;36.03;17.03;;;9.90;99.90;;;;;;5035301;28;20229;-69
2023/01/05 11:03:53;;;;;;;43.90;17.13;;;10.00;99.90;;;;;;5025382;28;20202;-69
2023/01/05 11:06:26;;;;;;;38.20;15.53;;;10.00;99.90;;;;;;5035097;28;20187;-69
2023/01/05 11:08:53;;;;;;;36.40;15.83;;;10.00;99.90;;;;;;5035082;28;20163;-69
2023/01/05 11:11:24;;;;;;;29.63;14.40;;;10.00;99.90;;;;;;5033858;28;20198;-69
2023/01/05 11:13:55;;;;;;;32.80;14.77;;;10.10;99.90;;;;;;5035169;28;20636;-69
2023/01/05 11:16:27;;;;;;;34.90;13.50;;;10.10;99.90;;;;;;5034176;28;20167;-69
2023/01/05 11:18:54;;;;;;;37.13;14.40;;;10.10;99.90;;;;;;5035734;28;20167;-68
2023/01/05 11:21:21;;;;;;;37.50;15.13;;;10.10;99.90;;;;;;5035277;28;20274;-69
2023/01/05 11:23:48;;;;;;;38.37;13.93;;;10.10;99.90;;;;;;5035158;28;20254;-69
2023/01/05 11:26:28;;;;;;;34.40;13.47;;;10.10;99.90;;;;;;5035310;28;20206;-67
2023/01/05 11:29:10;;;;;;;34.33;14.33;;;10.20;99.90;;;;;;5033663;28;20254;-70
2023/01/05 11:32:10;;;;;;;38.63;12.40;;;10.20;99.90;;;;;;5034878;28;20206;-68
2023/01/05 11:34:44;;;;;;;36.27;13.50;;;10.20;99.90;;;;;;5027398;28;20192;-66
2023/01/05 11:37:29;;;;;;;29.33;13.13;;;10.20;99.90;;;;;;5035348;28;20525;-66
2023/01/05 11:40:00;;;;;;;38.33;14.53;;;10.20;99.90;;;;;;5034817;28;20198;-68
2023/01/05 11:42:26;;;;;;;38.45;12.85;;;10.30;99.90;;;;;;5034632;28;20515;-66
2023/01/05 11:44:55;;;;;;;30.65;13.43;;;10.30;99.90;;;;;;5034513;28;20174;-66
2023/01/05 11:47:22;;;;;;;31.70;13.00;;;10.30;99.90;;;;;;5034550;28;20194;-68
2023/01/05 11:49:56;;;;;;;36.17;13.40;;;10.30;99.90;;;;;;5035086;28;20218;-69
2023/01/05 11:52:31;;;;;;;26.92;11.77;;;10.30;99.90;;;;;;5035548;28;20155;-71
2023/01/05 11:54:57;;;;;;;33.70;12.73;;;10.30;99.90;;;;;;5033765;28;20206;-70
2023/01/05 11:57:23;;;;;;;34.08;12.75;;;10.30;99.90;;;;;;5035132;28;20228;-71
2023/01/05 11:59:50;;;;;;;30.67;12.53;;;10.40;99.90;;;;;;5033080;28;20655;-67
2023/01/05 12:03:02;;;;;;;37.93;13.27;;;10.40;99.90;;;;;;5034487;28;20592;-67
2023/01/05 12:05:51;;;;;;;30.03;11.63;;;10.50;99.90;;;;;;5034525;28;20191;-67
2023/01/05 12:08:59;;;;;;;31.98;11.82;;;10.50;99.90;;;;;;5034316;28;20175;-67
2023/01/05 12:11:34;;;;;;;32.73;12.60;;;10.50;99.90;;;;;;5025894;28;20262;-67
2023/01/05 12:14:02;;;;;;;29.10;11.63;;;10.50;99.90;;;;;;5033163;28;20166;-67
2023/01/05 12:16:28;;;;;;;26.67;11.67;;;10.50;99.90;;;;;;5032531;28;20182;-67
2023/01/05 12:18:57;;;;;;;28.50;11.30;;;10.50;99.90;;;;;;5034018;28;20176;-66
2023/01/05 12:21:33;;;;;;;35.43;12.23;;;10.50;99.90;;;;;;5034214;28;20612;-69
2023/01/05 12:24:01;;;;;;;32.10;12.20;;;10.60;99.90;;;;;;5035393;28;20213;-69
2023/01/05 12:27:04;;;;;;;30.08;12.55;;;10.50;99.90;;;;;;5036285;28;20179;-67
2023/01/05 12:29:57;;;;;;;25.47;10.73;;;10.60;99.90;;;;;;5034737;28;20202;-68
2023/01/05 12:32:44;;;;;;;27.27;11.13;;;10.60;99.90;;;;;;5034906;28;20324;-67
2023/01/05 12:35:37;;;;;;;32.10;10.80;;;10.50;99.90;;;;;;5033375;28;20171;-67
2023/01/05 12:38:41;;;;;;;24.47;10.57;;;10.50;99.90;;;;;;5034004;28;20530;-67
2023/01/05 12:41:42;;;;;;;31.90;12.27;;;10.50;99.90;;;;;;4992692;28;20747;-67
2023/01/05 12:44:16;;;;;;;29.38;10.07;;;10.50;99.90;;;;;;5011077;28;20612;-67
2023/01/05 12:46:45;;;;;;;33.83;10.90;;;10.50;99.90;;;;;;5032525;28;20669;-67
2023/01/05 12:49:29;;;;;;;27.52;10.30;;;10.50;99.90;;;;;;5033790;28;20205;-66
2023/01/05 12:51:59;;;;;;;29.80;9.30;;;10.50;99.90;;;;;;5034087;28;20166;-67
2023/01/05 12:55:03;;;;;;;27.50;10.20;;;10.50;99.90;;;;;;5034598;28;20263;-72
2023/01/05 12:57:37;;;;;;;25.90;10.13;;;10.50;99.90;;;;;;5018624;28;20556;-69
2023/01/05 13:00:17;;;;;;;27.17;10.13;;;10.50;99.90;;;;;;5033137;28;20198;-72
2023/01/05 13:02:51;;;;;;;28.37;8.43;;;10.60;99.90;;;;;;5034293;28;20174;-68
2023/01/05 13:05:33;;;;;;;23.37;8.57;;;10.60;99.90;;;;;;5017906;28;20273;-66
2023/01/05 13:08:16;;;;;;;25.23;8.48;;;10.70;99.90;;;;;;5016751;28;20187;-70
2023/01/05 13:10:45;;;;;;;18.50;9.00;;;10.70;99.90;;;;;;5034507;28;20585;-71
2023/01/05 13:13:18;;;;;;;28.47;8.57;;;10.70;99.90;;;;;;5038650;28;20181;-71
2023/01/05 13:15:53;;;;;;;20.70;7.90;;;10.60;99.90;;;;;;5038475;28;20163;-66
2023/01/05 13:18:22;;;;;;;24.57;8.53;;;10.70;99.90;;;;;;5037664;28;20546;-71
2023/01/05 13:20:57;;;;;;;25.40;8.37;;;10.70;99.90;;;;;;5038288;28;20195;-66
2023/01/05 13:23:49;;;;;;;18.88;7.68;;;10.70;99.90;;;;;;5037663;28;20177;-66
2023/01/05 13:26:16;;;;;;;26.20;7.32;;;10.80;99.90;;;;;;5014379;28;20297;-68
2023/01/05 13:28:46;;;;;;;30.13;8.03;;;10.80;99.90;;;;;;5037282;28;20207;-69